KDUA

Durant Regional - Eaker Field Airport

Durant, Oklahoma, USA
METAR KDUA 221835Z AUTO 15010KT 3SM -DZ OVC003 11/11 A2983 RMK AO2
Observed Flight Rules
Jan-22 @ 18:35 UTC (16 minutes ago) Instrument Flight Rules
Wind Visibility Clouds Conditions
150° at 10 knots 3 miles
  • Overcast at 300' AGL
  • Light Drizzle
Temperatures Readings
Current 11°C / 52°F
Dewpoint 11°C / 52°F
Humidity 100%
Altimeter 29.83" Hg
Pressure 1010.12 hPa
Elevation 213
METAR KDUA 221835Z AUTO 15010KT 3SM -DZ OVC003 11/11 A2983 RMK AO2
Observed Flight Rules
Jan-22 @ 18:35 UTC
(16 minutes ago)
LIFR
Wind Visibility
150° at 10 knots 3 miles
Clouds
  • Overcast at 300' AGL
Conditions
  • Light Drizzle
Temperature Dewpoint
11°C / 52°F 11°C / 52°F
Humidity Altimeter Pressure
100% 29.83" Hg 1010.12 hPa